createdAt,value
2018-04-26T00:00:16.904Z,11.61
2018-04-26T00:01:16.833Z,11.67
2018-04-26T00:02:16.753Z,11.59
2018-04-26T00:03:16.678Z,11.56
2018-04-26T00:04:16.603Z,11.59
2018-04-26T00:05:16.529Z,11.54
2018-04-26T00:06:16.452Z,11.53
2018-04-26T00:07:16.377Z,11.50
2018-04-26T00:08:16.301Z,11.53
2018-04-26T00:09:16.228Z,11.38
2018-04-26T00:10:16.151Z,11.35
2018-04-26T00:11:16.079Z,11.41
2018-04-26T00:12:15.999Z,11.31
2018-04-26T00:13:15.924Z,11.26
2018-04-26T00:14:15.848Z,11.17
2018-04-26T00:15:15.772Z,11.13
2018-04-26T00:16:15.698Z,11.17
2018-04-26T00:17:15.625Z,11.00
2018-04-26T00:18:15.546Z,11.05
2018-04-26T00:19:15.470Z,11.05
2018-04-26T00:20:15.395Z,11.08
2018-04-26T00:21:15.320Z,11.03
2018-04-26T00:22:15.248Z,11.02
2018-04-26T00:23:15.171Z,11.02
2018-04-26T00:24:15.092Z,11.23
2018-04-26T00:25:15.016Z,11.28
2018-04-26T00:26:14.942Z,11.21
2018-04-26T00:27:14.864Z,11.21
2018-04-26T00:28:14.788Z,10.98
2018-04-26T00:29:14.720Z,10.95
2018-04-26T00:30:14.635Z,10.92
2018-04-26T00:31:14.561Z,10.85
2018-04-26T00:32:14.485Z,10.73
2018-04-26T00:33:14.409Z,10.66
2018-04-26T00:34:14.334Z,10.53
2018-04-26T00:35:14.257Z,10.44
2018-04-26T00:36:14.181Z,10.44
2018-04-26T00:37:14.105Z,10.49
2018-04-26T00:38:14.029Z,10.40
2018-04-26T00:39:13.952Z,10.36
2018-04-26T00:40:13.877Z,10.46
2018-04-26T00:41:13.801Z,10.25
2018-04-26T00:42:13.725Z,10.16
2018-04-26T00:43:13.648Z,10.21
2018-04-26T00:44:13.573Z,10.16
2018-04-26T00:45:13.507Z,10.13
2018-04-26T00:46:13.421Z,9.90
2018-04-26T00:47:13.345Z,9.90
2018-04-26T00:48:13.269Z,9.74
2018-04-26T00:49:13.192Z,9.71
2018-04-26T00:50:13.117Z,9.55
2018-04-26T00:51:13.040Z,9.55
2018-04-26T00:52:12.967Z,9.38
2018-04-26T00:53:12.886Z,9.40
2018-04-26T00:54:12.809Z,9.37
2018-04-26T00:55:12.734Z,9.37
2018-04-26T00:56:12.664Z,9.28
2018-04-26T00:57:12.583Z,9.19
2018-04-26T00:58:12.505Z,9.14
2018-04-26T00:59:12.428Z,9.06
2018-04-26T01:00:12.353Z,9.14
2018-04-26T01:01:12.276Z,9.02
2018-04-26T01:02:12.199Z,8.90
2018-04-26T01:03:12.122Z,8.94
2018-04-26T01:04:12.045Z,8.98
2018-04-26T01:05:11.969Z,8.94
2018-04-26T01:06:11.892Z,9.05
2018-04-26T01:07:11.815Z,9.03
2018-04-26T01:08:11.742Z,9.02
2018-04-26T01:09:11.662Z,9.17
2018-04-26T01:10:11.584Z,9.31
2018-04-26T01:11:11.509Z,9.25
2018-04-26T01:12:11.431Z,9.28
2018-04-26T01:13:11.356Z,9.37
2018-04-26T01:14:11.277Z,9.34
2018-04-26T01:15:11.201Z,9.40
2018-04-26T01:16:11.123Z,9.29
2018-04-26T01:17:11.047Z,9.22
2018-04-26T01:18:11.009Z,9.24
2018-04-26T01:19:10.901Z,9.25
2018-04-26T01:20:11.021Z,9.13
2018-04-26T01:21:10.740Z,9.10
2018-04-26T01:22:10.661Z,9.03
2018-04-26T01:23:10.585Z,9.10
2018-04-26T01:24:10.512Z,8.97
2018-04-26T01:25:10.432Z,9.06
2018-04-26T01:26:10.353Z,9.02
2018-04-26T01:27:10.280Z,9.03
2018-04-26T01:28:10.200Z,8.95
2018-04-26T01:29:10.122Z,9.03
2018-04-26T01:30:10.046Z,9.00
2018-04-26T01:31:09.968Z,9.06
2018-04-26T01:32:09.892Z,9.02
2018-04-26T01:33:09.815Z,8.98
2018-04-26T01:34:09.737Z,8.94
2018-04-26T01:35:09.739Z,8.90
2018-04-26T01:36:09.583Z,8.93
2018-04-26T01:37:09.507Z,8.85
2018-04-26T01:38:09.430Z,8.90
2018-04-26T01:39:09.351Z,8.68
2018-04-26T01:40:09.274Z,8.65
2018-04-26T01:41:09.198Z,8.73
2018-04-26T01:42:09.121Z,8.70
2018-04-26T01:43:09.052Z,8.65
2018-04-26T01:44:08.976Z,8.61
2018-04-26T01:45:08.891Z,8.58
2018-04-26T01:46:08.812Z,8.57
2018-04-26T01:47:08.733Z,8.54
2018-04-26T01:48:08.658Z,8.44
2018-04-26T01:49:08.585Z,8.39
2018-04-26T01:50:08.502Z,8.50
2018-04-26T01:51:08.424Z,8.48
2018-04-26T01:52:08.350Z,8.33
2018-04-26T01:53:08.271Z,8.29
2018-04-26T01:54:08.192Z,8.30
2018-04-26T01:55:08.115Z,8.25
2018-04-26T01:56:08.038Z,8.21
2018-04-26T01:57:07.960Z,8.30
2018-04-26T01:58:07.883Z,8.29
2018-04-26T01:59:07.806Z,8.24
2018-04-26T02:00:07.728Z,8.36
2018-04-26T02:01:07.800Z,8.30
2018-04-26T02:02:07.573Z,8.25
2018-04-26T02:03:07.498Z,8.30
2018-04-26T02:04:07.418Z,8.30
2018-04-26T02:05:07.340Z,8.27
2018-04-26T02:06:07.262Z,8.27
2018-04-26T02:07:07.185Z,8.30
2018-04-26T02:08:07.107Z,8.22
2018-04-26T02:09:07.030Z,8.27
2018-04-26T02:10:06.952Z,8.33
2018-04-26T02:11:06.874Z,8.40
2018-04-26T02:12:06.797Z,8.25
2018-04-26T02:13:06.720Z,8.34
2018-04-26T02:14:06.641Z,8.29
2018-04-26T02:15:06.564Z,8.29
2018-04-26T02:16:06.487Z,8.32
2018-04-26T02:17:06.410Z,8.29
2018-04-26T02:18:06.331Z,8.24
2018-04-26T02:19:06.253Z,8.32
2018-04-26T02:20:06.176Z,8.19
2018-04-26T02:21:06.098Z,8.12
2018-04-26T02:22:06.022Z,8.00
2018-04-26T02:23:05.945Z,8.07
2018-04-26T02:24:05.871Z,8.09
2018-04-26T02:25:05.791Z,8.29
2018-04-26T02:26:05.709Z,8.18
2018-04-26T02:27:05.633Z,8.21
2018-04-26T02:28:05.554Z,8.24
2018-04-26T02:29:05.479Z,8.21
2018-04-26T02:30:05.397Z,8.24
2018-04-26T02:31:05.320Z,8.18
2018-04-26T02:32:05.246Z,8.19
2018-04-26T02:33:05.166Z,8.17
2018-04-26T02:34:05.086Z,7.97
2018-04-26T02:35:05.009Z,8.09
2018-04-26T02:36:04.931Z,8.00
2018-04-26T02:37:04.853Z,8.36
2018-04-26T02:38:04.777Z,8.50
2018-04-26T02:39:04.698Z,8.54
2018-04-26T02:40:04.630Z,8.55
2018-04-26T02:41:04.542Z,8.61
2018-04-26T02:42:04.464Z,8.52
2018-04-26T02:43:04.388Z,8.52
2018-04-26T02:44:04.308Z,8.48
2018-04-26T02:45:04.234Z,8.42
2018-04-26T02:46:04.152Z,8.47
2018-04-26T02:47:04.073Z,8.37
2018-04-26T02:48:03.997Z,8.42
2018-04-26T02:49:03.918Z,8.40
2018-04-26T02:50:03.843Z,8.51
2018-04-26T02:51:03.763Z,8.47
2018-04-26T02:52:03.687Z,8.39
2018-04-26T02:53:03.609Z,8.44
2018-04-26T02:54:03.530Z,8.37
2018-04-26T02:55:03.453Z,8.40
2018-04-26T02:56:03.376Z,8.33
2018-04-26T02:57:03.298Z,8.42
2018-04-26T02:58:03.220Z,8.55
2018-04-26T02:59:03.143Z,8.54
2018-04-26T03:00:03.066Z,8.65
2018-04-26T03:01:02.992Z,8.69
2018-04-26T03:02:02.943Z,8.69
2018-04-26T03:03:02.831Z,8.72
2018-04-26T03:04:02.754Z,8.55
2018-04-26T03:05:02.680Z,8.51
2018-04-26T03:06:02.600Z,8.42
2018-04-26T03:07:02.523Z,8.34
2018-04-26T03:08:02.445Z,8.25
2018-04-26T03:09:02.367Z,8.19
2018-04-26T03:10:02.289Z,8.29
2018-04-26T03:11:02.212Z,8.29
2018-04-26T03:12:02.133Z,8.27
2018-04-26T03:13:02.055Z,8.22
2018-04-26T03:14:01.978Z,8.18
2018-04-26T03:15:01.904Z,8.22
2018-04-26T03:16:01.822Z,8.14
2018-04-26T03:17:01.746Z,8.14
2018-04-26T03:18:01.666Z,8.18
2018-04-26T03:19:01.590Z,8.18
2018-04-26T03:20:01.511Z,8.14
2018-04-26T03:21:01.434Z,8.12
2018-04-26T03:22:01.356Z,8.14
2018-04-26T03:23:01.277Z,8.07
2018-04-26T03:24:01.202Z,8.15
2018-04-26T03:25:01.127Z,8.19
2018-04-26T03:26:01.045Z,8.14
2018-04-26T03:27:00.966Z,8.09
2018-04-26T03:28:00.892Z,8.06
2018-04-26T03:29:00.812Z,8.06
2018-04-26T03:30:00.734Z,8.07
2018-04-26T03:31:00.681Z,8.12
2018-04-26T03:32:00.579Z,8.09
2018-04-26T03:33:00.501Z,8.18
2018-04-26T03:34:00.422Z,8.15
2018-04-26T03:35:00.345Z,8.07
2018-04-26T03:36:00.267Z,8.00
2018-04-26T03:37:00.189Z,7.99
2018-04-26T03:38:00.111Z,7.97
2018-04-26T03:39:00.035Z,7.88
2018-04-26T03:39:59.956Z,7.85
2018-04-26T03:40:59.878Z,7.86
2018-04-26T03:41:59.800Z,7.85
2018-04-26T03:42:59.726Z,7.81
2018-04-26T03:43:59.645Z,7.90
2018-04-26T03:44:59.568Z,7.82
2018-04-26T03:45:59.487Z,7.72
2018-04-26T03:46:59.410Z,7.75
2018-04-26T03:47:59.333Z,7.68
2018-04-26T03:48:59.255Z,7.75
2018-04-26T03:49:59.188Z,7.82
2018-04-26T03:50:59.100Z,7.68
2018-04-26T03:51:59.021Z,7.82
2018-04-26T03:52:58.942Z,7.90
2018-04-26T03:53:58.863Z,7.91
2018-04-26T03:54:58.787Z,7.88
2018-04-26T03:55:58.709Z,7.88
2018-04-26T03:56:58.632Z,7.90
2018-04-26T03:57:58.552Z,7.90
2018-04-26T03:58:58.474Z,7.97
2018-04-26T03:59:58.396Z,7.97
2018-04-26T04:00:58.317Z,8.00
2018-04-26T04:01:58.241Z,7.99
2018-04-26T04:02:58.162Z,8.04
2018-04-26T04:03:58.084Z,8.09
2018-04-26T04:04:58.011Z,8.04
2018-04-26T04:05:57.928Z,8.06
2018-04-26T04:06:57.852Z,8.04
2018-04-26T04:07:57.773Z,8.15
2018-04-26T04:08:57.695Z,8.11
2018-04-26T04:09:57.617Z,8.14
2018-04-26T04:10:57.537Z,8.12
2018-04-26T04:11:57.460Z,8.15
2018-04-26T04:12:57.383Z,8.12
2018-04-26T04:13:57.304Z,8.15
2018-04-26T04:14:57.228Z,8.09
2018-04-26T04:15:57.149Z,8.19
2018-04-26T04:16:57.071Z,8.18
2018-04-26T04:17:56.992Z,8.09
2018-04-26T04:18:56.915Z,8.19
2018-04-26T04:19:56.838Z,8.19
2018-04-26T04:20:56.759Z,8.24
2018-04-26T04:21:56.681Z,8.29
2018-04-26T04:22:56.603Z,8.29
2018-04-26T04:23:56.524Z,8.27
2018-04-26T04:24:56.452Z,8.24
2018-04-26T04:25:56.370Z,8.34
2018-04-26T04:26:56.294Z,8.36
2018-04-26T04:27:56.226Z,8.42
2018-04-26T04:28:56.137Z,8.54
2018-04-26T04:29:56.058Z,8.52
2018-04-26T04:30:55.983Z,8.27
2018-04-26T04:31:55.903Z,8.27
2018-04-26T04:32:55.824Z,8.24
2018-04-26T04:33:55.784Z,8.39
2018-04-26T04:34:55.669Z,8.29
2018-04-26T04:35:55.592Z,8.43
2018-04-26T04:36:55.514Z,8.69
2018-04-26T04:37:55.435Z,8.84
2018-04-26T04:38:55.357Z,8.97
2018-04-26T04:39:55.280Z,8.94
2018-04-26T04:40:55.203Z,8.93
2018-04-26T04:41:55.124Z,9.02
2018-04-26T04:42:55.050Z,9.09
2018-04-26T04:43:54.969Z,9.05
2018-04-26T04:44:54.891Z,9.03
2018-04-26T04:45:54.814Z,9.03
2018-04-26T04:46:54.736Z,9.10
2018-04-26T04:47:54.658Z,9.17
2018-04-26T04:48:54.582Z,9.09
2018-04-26T04:49:54.503Z,9.05
2018-04-26T04:50:54.426Z,9.09
2018-04-26T04:51:54.349Z,9.14
2018-04-26T04:52:54.270Z,9.22
2018-04-26T04:53:54.192Z,9.22
2018-04-26T04:54:54.115Z,9.24
2018-04-26T04:55:54.038Z,9.35
2018-04-26T04:56:53.961Z,9.40
2018-04-26T04:57:53.883Z,9.45
2018-04-26T04:58:53.811Z,9.40
2018-04-26T04:59:53.737Z,9.45
2018-04-26T05:00:53.651Z,9.38
2018-04-26T05:01:53.572Z,9.43
2018-04-26T05:02:53.495Z,9.56
2018-04-26T05:03:53.418Z,9.60
2018-04-26T05:04:53.340Z,9.60
2018-04-26T05:05:53.268Z,9.70
2018-04-26T05:06:53.185Z,9.68
2018-04-26T05:07:53.109Z,9.82
2018-04-26T05:08:53.031Z,9.98
2018-04-26T05:09:52.952Z,10.00
2018-04-26T05:10:52.877Z,10.06
2018-04-26T05:11:52.797Z,10.01
2018-04-26T05:12:52.720Z,10.11
2018-04-26T05:13:52.711Z,10.13
2018-04-26T05:14:52.567Z,10.13
2018-04-26T05:15:52.489Z,10.13
2018-04-26T05:16:52.413Z,10.15
2018-04-26T05:17:52.334Z,10.18
2018-04-26T05:18:52.256Z,10.19
2018-04-26T05:19:52.181Z,10.13
2018-04-26T05:20:52.104Z,10.19
2018-04-26T05:21:52.025Z,10.13
2018-04-26T05:22:51.949Z,10.21
2018-04-26T05:23:51.871Z,10.21
2018-04-26T05:24:51.795Z,10.11
2018-04-26T05:25:51.717Z,10.18
2018-04-26T05:26:51.639Z,10.10
2018-04-26T05:27:51.561Z,10.22
2018-04-26T05:28:51.486Z,10.18
2018-04-26T05:29:51.408Z,10.21
2018-04-26T05:30:51.332Z,10.11
2018-04-26T05:31:51.253Z,10.11
2018-04-26T05:32:51.176Z,10.11
2018-04-26T05:33:51.098Z,10.13
2018-04-26T05:34:51.022Z,10.08
2018-04-26T05:35:50.945Z,10.15
2018-04-26T05:36:50.868Z,10.10
2018-04-26T05:37:50.790Z,10.07
2018-04-26T05:38:50.713Z,10.06
2018-04-26T05:39:50.636Z,10.06
2018-04-26T05:40:50.559Z,9.98
2018-04-26T05:41:50.482Z,10.04
2018-04-26T05:42:50.406Z,10.03
2018-04-26T05:43:50.329Z,10.00
2018-04-26T05:44:50.252Z,10.11
2018-04-26T05:45:50.177Z,10.22
2018-04-26T05:46:50.097Z,10.23
2018-04-26T05:47:50.021Z,10.16
2018-04-26T05:48:49.945Z,10.21
2018-04-26T05:49:49.866Z,10.34
2018-04-26T05:50:49.790Z,10.37
2018-04-26T05:51:49.717Z,10.40
2018-04-26T05:52:49.636Z,10.43
2018-04-26T05:53:49.558Z,10.44
2018-04-26T05:54:49.481Z,10.47
2018-04-26T05:55:49.517Z,10.58
2018-04-26T05:56:49.328Z,10.58
2018-04-26T05:57:49.251Z,10.59
2018-04-26T05:58:49.174Z,10.60
2018-04-26T05:59:49.098Z,10.71
2018-04-26T06:00:49.022Z,10.77
2018-04-26T06:01:48.946Z,10.81
2018-04-26T06:02:48.868Z,10.78
2018-04-26T06:03:48.889Z,10.84
2018-04-26T06:04:48.714Z,10.78
2018-04-26T06:05:48.636Z,10.85
2018-04-26T06:06:48.559Z,10.84
2018-04-26T06:07:48.483Z,10.83
2018-04-26T06:08:48.407Z,10.87
2018-04-26T06:09:48.329Z,10.93
2018-04-26T06:10:48.253Z,10.96
2018-04-26T06:11:48.176Z,10.99
2018-04-26T06:12:48.099Z,10.87
2018-04-26T06:13:48.022Z,10.96
2018-04-26T06:14:47.945Z,10.95
2018-04-26T06:15:47.869Z,10.99
2018-04-26T06:16:47.840Z,11.00
2018-04-26T06:17:47.718Z,11.06
2018-04-26T06:18:47.639Z,11.03
2018-04-26T06:19:47.563Z,11.18
2018-04-26T06:20:47.486Z,11.21
2018-04-26T06:21:47.413Z,11.13
2018-04-26T06:22:47.333Z,11.17
2018-04-26T06:23:47.257Z,10.98
2018-04-26T06:24:47.181Z,11.06
2018-04-26T06:25:47.104Z,11.06
2018-04-26T06:26:47.029Z,11.08
2018-04-26T06:27:46.955Z,10.96
2018-04-26T06:28:46.876Z,11.03
2018-04-26T06:29:46.799Z,11.00
2018-04-26T06:30:46.722Z,10.95
2018-04-26T06:31:46.645Z,11.00
2018-04-26T06:32:46.569Z,10.95
2018-04-26T06:33:46.495Z,10.99
2018-04-26T06:34:46.419Z,10.92
2018-04-26T06:35:46.341Z,10.85
2018-04-26T06:36:46.310Z,10.84
2018-04-26T06:37:46.186Z,10.75
2018-04-26T06:38:46.110Z,10.69
2018-04-26T06:39:46.038Z,10.56
2018-04-26T06:40:45.957Z,10.55
2018-04-26T06:41:45.880Z,10.67
2018-04-26T06:42:45.801Z,10.59
2018-04-26T06:43:45.726Z,10.60
2018-04-26T06:44:45.649Z,10.55
2018-04-26T06:45:45.573Z,10.66
2018-04-26T06:46:45.495Z,10.78
2018-04-26T06:47:45.454Z,10.74
2018-04-26T06:48:45.343Z,10.75
2018-04-26T06:49:45.265Z,10.83
2018-04-26T06:50:45.190Z,10.85
2018-04-26T06:51:45.112Z,10.98
2018-04-26T06:52:45.036Z,11.06
2018-04-26T06:53:44.960Z,10.99
2018-04-26T06:54:44.882Z,11.03
2018-04-26T06:55:44.806Z,10.95
2018-04-26T06:56:44.728Z,10.95
2018-04-26T06:57:44.655Z,10.98
2018-04-26T06:58:44.576Z,10.85
2018-04-26T06:59:44.500Z,10.99
2018-04-26T07:00:44.423Z,10.87
2018-04-26T07:01:44.346Z,10.83
2018-04-26T07:02:44.269Z,10.83
2018-04-26T07:03:44.192Z,10.78
2018-04-26T07:04:44.117Z,10.91
2018-04-26T07:05:44.090Z,10.83
2018-04-26T07:06:43.964Z,10.95
2018-04-26T07:07:43.890Z,10.91
2018-04-26T07:08:43.813Z,10.99
2018-04-26T07:09:43.732Z,11.00
2018-04-26T07:10:43.656Z,11.14
2018-04-26T07:11:43.581Z,11.18
2018-04-26T07:12:43.503Z,11.21
2018-04-26T07:13:43.425Z,11.32
2018-04-26T07:14:43.350Z,11.21
2018-04-26T07:15:43.272Z,11.31
2018-04-26T07:16:43.195Z,11.39
2018-04-26T07:17:43.117Z,11.57
2018-04-26T07:18:43.042Z,11.34
2018-04-26T07:19:42.965Z,11.38
2018-04-26T07:20:42.888Z,11.32
2018-04-26T07:21:42.841Z,11.49
2018-04-26T07:22:42.735Z,11.36
2018-04-26T07:23:42.659Z,11.57
2018-04-26T07:24:42.584Z,11.65
2018-04-26T07:25:42.506Z,11.74
2018-04-26T07:26:42.432Z,11.79
2018-04-26T07:27:42.355Z,11.79
2018-04-26T07:28:42.279Z,11.81
2018-04-26T07:29:42.201Z,11.72
2018-04-26T07:30:42.125Z,11.90
2018-04-26T07:31:42.049Z,12.06
2018-04-26T07:32:41.973Z,11.95
2018-04-26T07:33:41.896Z,11.90
2018-04-26T07:34:41.821Z,11.87
2018-04-26T07:35:41.746Z,11.97
2018-04-26T07:36:41.718Z,12.02
2018-04-26T07:37:41.593Z,11.97
2018-04-26T07:38:41.517Z,12.12
2018-04-26T07:39:41.441Z,12.18
2018-04-26T07:40:41.366Z,12.27
2018-04-26T07:41:41.294Z,12.44
2018-04-26T07:42:41.214Z,12.52
2018-04-26T07:43:41.138Z,12.36
2018-04-26T07:44:41.122Z,12.44
2018-04-26T07:45:40.986Z,12.21
2018-04-26T07:46:40.917Z,12.08
2018-04-26T07:47:40.837Z,12.16
2018-04-26T07:48:40.764Z,12.24
2018-04-26T07:49:40.683Z,12.26
2018-04-26T07:50:40.608Z,12.15
2018-04-26T07:51:40.532Z,12.16
2018-04-26T07:52:40.458Z,12.18
2018-04-26T07:53:40.381Z,12.19
2018-04-26T07:54:40.306Z,12.19
2018-04-26T07:55:40.230Z,12.12
2018-04-26T07:56:40.155Z,12.27
2018-04-26T07:57:40.077Z,12.41
2018-04-26T07:58:40.004Z,12.49
2018-04-26T07:59:39.928Z,12.49
2018-04-26T08:00:39.853Z,12.37
2018-04-26T08:01:39.854Z,12.49
2018-04-26T08:02:39.707Z,12.67
2018-04-26T08:03:39.631Z,12.63
2018-04-26T08:04:39.551Z,12.56
2018-04-26T08:05:39.477Z,12.77
2018-04-26T08:06:39.401Z,12.73
2018-04-26T08:07:39.326Z,12.71
2018-04-26T08:08:39.251Z,12.74
2018-04-26T08:09:39.175Z,12.63
2018-04-26T08:10:39.100Z,12.82
2018-04-26T08:11:39.063Z,12.79
2018-04-26T08:12:38.950Z,12.77
2018-04-26T08:13:38.874Z,12.61
2018-04-26T08:14:38.800Z,12.52
2018-04-26T08:15:38.726Z,12.55
2018-04-26T08:16:38.653Z,12.45
2018-04-26T08:17:38.576Z,12.19
2018-04-26T08:18:38.500Z,12.09
2018-04-26T08:19:38.490Z,12.26
2018-04-26T08:20:38.351Z,12.61
2018-04-26T08:21:38.275Z,12.64
2018-04-26T08:22:38.205Z,12.73
2018-04-26T08:23:38.125Z,12.88
2018-04-26T08:24:38.050Z,12.78
2018-04-26T08:25:37.974Z,12.96
2018-04-26T08:26:37.900Z,12.86
2018-04-26T08:27:37.827Z,12.99
2018-04-26T08:28:37.752Z,12.78
2018-04-26T08:29:37.674Z,12.89
2018-04-26T08:30:37.600Z,13.07
2018-04-26T08:31:37.526Z,13.07
2018-04-26T08:32:37.453Z,13.00
2018-04-26T08:33:37.376Z,12.77
2018-04-26T08:34:37.301Z,12.77
2018-04-26T08:35:37.227Z,12.78
2018-04-26T08:36:37.157Z,13.04
2018-04-26T08:37:37.077Z,12.94
2018-04-26T08:38:37.003Z,12.92
2018-04-26T08:39:36.928Z,12.96
2018-04-26T08:40:36.853Z,12.99
2018-04-26T08:41:36.778Z,12.86
2018-04-26T08:42:36.715Z,12.81
2018-04-26T08:43:36.630Z,12.63
2018-04-26T08:44:36.556Z,12.67
2018-04-26T08:45:36.551Z,12.71
2018-04-26T08:46:36.406Z,12.82
2018-04-26T08:47:36.333Z,12.92
2018-04-26T08:48:36.296Z,12.99
2018-04-26T08:49:36.182Z,13.03
2018-04-26T08:50:36.108Z,12.88
2018-04-26T08:51:36.035Z,12.73
2018-04-26T08:52:35.959Z,12.49
2018-04-26T08:53:35.884Z,12.51
2018-04-26T08:54:35.810Z,12.37
2018-04-26T08:55:35.734Z,12.45
2018-04-26T08:56:35.661Z,12.78
2018-04-26T08:57:35.585Z,12.71
2018-04-26T08:58:35.512Z,12.88
2018-04-26T08:59:35.436Z,13.02
2018-04-26T09:00:35.361Z,13.27
2018-04-26T09:01:35.286Z,13.44
2018-04-26T09:02:35.212Z,13.43
2018-04-26T09:03:35.137Z,13.38
2018-04-26T09:04:35.064Z,13.18
2018-04-26T09:05:34.987Z,13.27
2018-04-26T09:06:34.918Z,13.19
2018-04-26T09:07:34.838Z,13.15
2018-04-26T09:08:34.763Z,13.06
2018-04-26T09:09:34.692Z,13.10
2018-04-26T09:10:34.615Z,13.17
2018-04-26T09:11:34.541Z,13.07
2018-04-26T09:12:34.466Z,13.00
2018-04-26T09:13:34.391Z,12.88
2018-04-26T09:14:34.317Z,12.74
2018-04-26T09:15:34.326Z,12.85
2018-04-26T09:16:34.168Z,12.84
2018-04-26T09:17:34.093Z,12.88
2018-04-26T09:18:34.024Z,13.04
2018-04-26T09:19:33.943Z,13.24
2018-04-26T09:20:33.870Z,13.38
2018-04-26T09:21:33.795Z,13.65
2018-04-26T09:22:33.721Z,13.84
2018-04-26T09:23:33.648Z,13.81
2018-04-26T09:24:33.574Z,13.59
2018-04-26T09:25:33.497Z,13.18
2018-04-26T09:26:33.424Z,13.10
2018-04-26T09:27:33.349Z,13.38
2018-04-26T09:28:33.276Z,13.62
2018-04-26T09:29:33.200Z,13.86
2018-04-26T09:30:33.130Z,13.74
2018-04-26T09:31:33.052Z,13.55
2018-04-26T09:32:32.978Z,13.58
2018-04-26T09:33:32.904Z,13.53
2018-04-26T09:34:32.832Z,13.76
2018-04-26T09:35:32.756Z,13.84
2018-04-26T09:36:32.682Z,14.02
2018-04-26T09:37:32.608Z,13.99
2018-04-26T09:38:32.534Z,14.03
2018-04-26T09:39:32.461Z,14.17
2018-04-26T09:40:32.387Z,14.32
2018-04-26T09:41:32.313Z,14.20
2018-04-26T09:42:32.242Z,14.13
2018-04-26T09:43:32.167Z,13.91
2018-04-26T09:44:32.093Z,13.96
2018-04-26T09:45:32.019Z,14.23
2018-04-26T09:46:31.947Z,14.38
2018-04-26T09:47:31.872Z,14.35
2018-04-26T09:48:31.815Z,14.38
2018-04-26T09:49:31.725Z,14.19
2018-04-26T09:50:31.652Z,14.11
2018-04-26T09:51:31.578Z,13.83
2018-04-26T09:52:31.506Z,13.84
2018-04-26T09:53:31.432Z,13.96
2018-04-26T09:54:31.360Z,13.73
2018-04-26T09:55:31.325Z,13.89
2018-04-26T09:56:31.212Z,13.92
2018-04-26T09:57:31.137Z,14.07
2018-04-26T09:58:31.136Z,14.03
2018-04-26T09:59:30.993Z,14.21
2018-04-26T10:00:30.920Z,14.23
2018-04-26T10:01:30.845Z,14.39
2018-04-26T10:02:30.772Z,14.57
2018-04-26T10:03:30.850Z,14.75
2018-04-26T10:04:30.626Z,14.44
2018-04-26T10:05:30.552Z,14.36
2018-04-26T10:06:30.486Z,14.21
2018-04-26T10:07:30.406Z,14.13
2018-04-26T10:08:30.333Z,14.20
2018-04-26T10:09:30.309Z,14.27
2018-04-26T10:10:30.187Z,14.42
2018-04-26T10:11:30.113Z,14.28
2018-04-26T10:12:30.041Z,14.35
2018-04-26T10:13:29.967Z,14.16
2018-04-26T10:14:29.893Z,13.95
2018-04-26T10:15:29.821Z,14.01
2018-04-26T10:16:29.747Z,13.92
2018-04-26T10:17:29.677Z,13.66
2018-04-26T10:18:29.601Z,13.74
2018-04-26T10:19:29.528Z,13.83
2018-04-26T10:20:29.454Z,13.84
2018-04-26T10:21:29.382Z,13.94
2018-04-26T10:22:29.311Z,13.81
2018-04-26T10:23:29.234Z,13.84
2018-04-26T10:24:29.161Z,13.91
2018-04-26T10:25:29.088Z,13.86
2018-04-26T10:26:29.016Z,14.02
2018-04-26T10:27:28.942Z,14.03
2018-04-26T10:28:28.869Z,13.74
2018-04-26T10:29:28.794Z,13.70
2018-04-26T10:30:28.721Z,13.62
2018-04-26T10:31:28.648Z,13.74
2018-04-26T10:32:28.576Z,13.77
2018-04-26T10:33:28.501Z,13.65
2018-04-26T10:34:28.428Z,13.68
2018-04-26T10:35:28.397Z,13.62
2018-04-26T10:36:28.336Z,13.63
2018-04-26T10:37:28.207Z,13.66
2018-04-26T10:38:28.134Z,13.66
2018-04-26T10:39:28.062Z,13.62
2018-04-26T10:40:27.988Z,13.77
2018-04-26T10:41:27.913Z,13.77
2018-04-26T10:42:27.840Z,13.68
2018-04-26T10:43:27.766Z,13.59
2018-04-26T10:44:27.787Z,13.58
2018-04-26T10:45:27.618Z,13.80
2018-04-26T10:46:27.549Z,14.07
2018-04-26T10:47:27.473Z,14.11
2018-04-26T10:48:27.400Z,14.21
2018-04-26T10:49:27.325Z,14.20
2018-04-26T10:50:27.252Z,14.02
2018-04-26T10:51:27.180Z,14.09
2018-04-26T10:52:27.105Z,13.94
2018-04-26T10:53:27.030Z,13.70
2018-04-26T10:54:26.962Z,13.74
2018-04-26T10:55:26.884Z,13.87
2018-04-26T10:56:26.816Z,14.14
2018-04-26T10:57:26.744Z,14.21
2018-04-26T10:58:26.665Z,14.11
2018-04-26T10:59:26.592Z,14.27
2018-04-26T11:00:26.519Z,14.17
2018-04-26T11:01:26.452Z,14.29
2018-04-26T11:02:26.372Z,14.52
2018-04-26T11:03:26.299Z,14.46
2018-04-26T11:04:26.226Z,14.17
2018-04-26T11:05:26.153Z,14.36
2018-04-26T11:06:26.077Z,14.29
2018-04-26T11:07:26.007Z,14.21
2018-04-26T11:08:25.933Z,14.27
2018-04-26T11:09:25.859Z,14.31
2018-04-26T11:10:25.787Z,14.29
2018-04-26T11:11:25.783Z,14.29
2018-04-26T11:12:25.642Z,14.34
2018-04-26T11:13:25.570Z,14.32
2018-04-26T11:14:25.496Z,14.24
2018-04-26T11:15:25.468Z,14.27
2018-04-26T11:16:25.351Z,14.07
2018-04-26T11:17:25.277Z,13.91
2018-04-26T11:18:25.203Z,13.81
2018-04-26T11:19:25.132Z,13.78
2018-04-26T11:20:25.063Z,13.86
2018-04-26T11:21:25.156Z,13.95
2018-04-26T11:22:24.911Z,14.09
2018-04-26T11:23:24.839Z,13.89
2018-04-26T11:24:24.774Z,13.94
2018-04-26T11:25:24.693Z,13.92
2018-04-26T11:26:24.619Z,14.36
2018-04-26T11:27:24.546Z,14.36
2018-04-26T11:28:24.473Z,14.31
2018-04-26T11:29:24.442Z,14.29
2018-04-26T11:30:24.327Z,14.05
2018-04-26T11:31:24.254Z,13.74
2018-04-26T11:32:24.180Z,13.66
2018-04-26T11:33:24.107Z,13.73
2018-04-26T11:34:24.034Z,13.80
2018-04-26T11:35:23.961Z,13.78
2018-04-26T11:36:23.892Z,13.83
2018-04-26T11:37:23.814Z,13.81
2018-04-26T11:38:23.750Z,13.87
2018-04-26T11:39:23.669Z,14.28
2018-04-26T11:40:23.596Z,14.75
2018-04-26T11:41:23.523Z,14.83
2018-04-26T11:42:23.450Z,14.61
2018-04-26T11:43:23.378Z,14.50
2018-04-26T11:44:23.304Z,14.53
2018-04-26T11:45:23.231Z,14.78
2018-04-26T11:46:23.158Z,14.60
2018-04-26T11:47:23.088Z,14.61
2018-04-26T11:48:23.021Z,14.57
2018-04-26T11:49:22.940Z,15.09
2018-04-26T11:50:22.870Z,14.71
2018-04-26T11:51:22.797Z,14.65
2018-04-26T11:52:22.772Z,14.57
2018-04-26T11:53:22.652Z,14.60
2018-04-26T11:54:22.580Z,14.61
2018-04-26T11:55:22.508Z,14.61
2018-04-26T11:56:22.515Z,14.83
2018-04-26T11:57:22.365Z,15.91
2018-04-26T11:58:22.292Z,15.70
2018-04-26T11:59:22.221Z,15.16
2018-04-26T12:00:22.149Z,14.67
2018-04-26T12:01:22.077Z,14.61
2018-04-26T12:02:22.016Z,14.46
2018-04-26T12:03:21.934Z,14.49
2018-04-26T12:04:21.873Z,14.47
2018-04-26T12:05:21.791Z,14.38
2018-04-26T12:06:21.723Z,14.23
2018-04-26T12:07:21.646Z,14.13
2018-04-26T12:08:21.578Z,13.96
2018-04-26T12:09:21.501Z,14.32
2018-04-26T12:10:21.430Z,14.31
2018-04-26T12:11:21.359Z,14.39
2018-04-26T12:12:21.286Z,14.47
2018-04-26T12:13:21.214Z,14.57
2018-04-26T12:14:21.141Z,14.59
2018-04-26T12:15:21.069Z,14.59
2018-04-26T12:16:20.997Z,14.54
2018-04-26T12:17:20.925Z,14.52
2018-04-26T12:18:20.852Z,14.28
2018-04-26T12:19:20.779Z,14.31
2018-04-26T12:20:20.706Z,14.20
2018-04-26T12:21:20.638Z,14.21
2018-04-26T12:22:20.561Z,14.23
2018-04-26T12:23:20.490Z,14.23
2018-04-26T12:24:20.417Z,14.13
2018-04-26T12:25:20.344Z,14.16
2018-04-26T12:26:20.271Z,14.28
2018-04-26T12:27:20.198Z,14.59
2018-04-26T12:28:20.129Z,14.93
2018-04-26T12:29:20.089Z,15.61
2018-04-26T12:30:19.979Z,15.13
2018-04-26T12:31:19.908Z,15.13
2018-04-26T12:32:19.838Z,14.94
2018-04-26T12:33:19.762Z,14.84
2018-04-26T12:34:19.691Z,14.85
2018-04-26T12:35:19.619Z,14.78
2018-04-26T12:36:19.546Z,14.68
2018-04-26T12:37:19.473Z,14.36
2018-04-26T12:38:19.403Z,14.32
2018-04-26T12:39:19.329Z,14.36
2018-04-26T12:40:19.257Z,14.34
2018-04-26T12:41:19.185Z,14.35
2018-04-26T12:42:19.196Z,14.41
2018-04-26T12:43:19.040Z,14.88
2018-04-26T12:44:18.967Z,15.71
2018-04-26T12:45:18.895Z,15.46
2018-04-26T12:46:18.822Z,15.24
2018-04-26T12:47:18.750Z,15.12
2018-04-26T12:48:18.677Z,15.05
2018-04-26T12:49:18.606Z,14.80
2018-04-26T12:50:18.537Z,14.87
2018-04-26T12:51:18.464Z,14.87
2018-04-26T12:52:18.392Z,14.85
2018-04-26T12:53:18.317Z,14.83
2018-04-26T12:54:18.246Z,14.75
2018-04-26T12:55:18.175Z,14.64
2018-04-26T12:56:18.101Z,14.59
2018-04-26T12:57:18.030Z,15.26
2018-04-26T12:58:17.956Z,15.18
2018-04-26T12:59:17.885Z,14.93
2018-04-26T13:00:17.813Z,14.85